sensor_id;sensor_type;location;lat;lon;timestamp;temperature;humidity
4308;DHT22;2167;53.448;9.984;2023-01-25T00:02:01;1.20;19.70
4308;DHT22;2167;53.448;9.984;2023-01-25T00:04:28;1.10;20.10
4308;DHT22;2167;53.448;9.984;2023-01-25T00:06:54;1.20;20.30
4308;DHT22;2167;53.448;9.984;2023-01-25T00:09:20;1.20;20.00
4308;DHT22;2167;53.448;9.984;2023-01-25T00:11:46;1.30;20.10
4308;DHT22;2167;53.448;9.984;2023-01-25T00:14:13;1.30;19.80
4308;DHT22;2167;53.448;9.984;2023-01-25T00:16:39;1.30;19.70
4308;DHT22;2167;53.448;9.984;2023-01-25T00:19:06;1.20;19.40
4308;DHT22;2167;53.448;9.984;2023-01-25T00:21:32;1.10;19.10
4308;DHT22;2167;53.448;9.984;2023-01-25T00:24:01;1.10;19.80
4308;DHT22;2167;53.448;9.984;2023-01-25T00:26:32;1.10;19.90
4308;DHT22;2167;53.448;9.984;2023-01-25T00:28:58;1.10;20.40
4308;DHT22;2167;53.448;9.984;2023-01-25T00:34:36;1.10;19.80
4308;DHT22;2167;53.448;9.984;2023-01-25T00:39:31;1.00;19.70
4308;DHT22;2167;53.448;9.984;2023-01-25T00:41:56;1.00;19.50
4308;DHT22;2167;53.448;9.984;2023-01-25T00:44:22;0.90;20.40
4308;DHT22;2167;53.448;9.984;2023-01-25T00:46:48;1.00;21.40
4308;DHT22;2167;53.448;9.984;2023-01-25T00:49:21;1.10;21.90
4308;DHT22;2167;53.448;9.984;2023-01-25T00:51:48;1.30;21.70
4308;DHT22;2167;53.448;9.984;2023-01-25T00:54:13;1.30;20.50
4308;DHT22;2167;53.448;9.984;2023-01-25T00:56:39;1.30;20.10
4308;DHT22;2167;53.448;9.984;2023-01-25T00:59:05;1.30;19.60
4308;DHT22;2167;53.448;9.984;2023-01-25T01:01:31;1.30;19.50
4308;DHT22;2167;53.448;9.984;2023-01-25T01:03:58;1.30;19.40
4308;DHT22;2167;53.448;9.984;2023-01-25T01:06:23;1.20;19.50
4308;DHT22;2167;53.448;9.984;2023-01-25T01:08:50;1.30;19.60
4308;DHT22;2167;53.448;9.984;2023-01-25T01:11:16;1.30;19.90
4308;DHT22;2167;53.448;9.984;2023-01-25T01:13:42;1.30;19.80
4308;DHT22;2167;53.448;9.984;2023-01-25T01:16:10;1.30;19.80
4308;DHT22;2167;53.448;9.984;2023-01-25T01:18:42;1.30;19.60
4308;DHT22;2167;53.448;9.984;2023-01-25T01:21:09;1.20;19.70
4308;DHT22;2167;53.448;9.984;2023-01-25T01:23:35;1.10;20.10
4308;DHT22;2167;53.448;9.984;2023-01-25T01:26:02;1.10;20.30
4308;DHT22;2167;53.448;9.984;2023-01-25T01:28:29;1.10;20.70
4308;DHT22;2167;53.448;9.984;2023-01-25T01:30:59;1.10;20.00
4308;DHT22;2167;53.448;9.984;2023-01-25T01:33:25;1.10;20.00
4308;DHT22;2167;53.448;9.984;2023-01-25T01:35:51;1.00;20.10
4308;DHT22;2167;53.448;9.984;2023-01-25T01:38:17;0.90;20.40
4308;DHT22;2167;53.448;9.984;2023-01-25T01:40:46;0.80;20.90
4308;DHT22;2167;53.448;9.984;2023-01-25T01:43:22;0.80;21.50
4308;DHT22;2167;53.448;9.984;2023-01-25T01:45:52;0.80;21.70
4308;DHT22;2167;53.448;9.984;2023-01-25T01:53:37;0.80;22.50
4308;DHT22;2167;53.448;9.984;2023-01-25T01:56:07;0.90;22.30
4308;DHT22;2167;53.448;9.984;2023-01-25T01:58:35;0.90;21.90
4308;DHT22;2167;53.448;9.984;2023-01-25T02:01:01;0.80;21.80
4308;DHT22;2167;53.448;9.984;2023-01-25T02:03:28;0.80;22.00
4308;DHT22;2167;53.448;9.984;2023-01-25T02:05:59;0.90;22.00
4308;DHT22;2167;53.448;9.984;2023-01-25T02:08:27;0.90;21.90
4308;DHT22;2167;53.448;9.984;2023-01-25T02:10:55;0.90;21.60
4308;DHT22;2167;53.448;9.984;2023-01-25T02:13:21;0.80;21.70
4308;DHT22;2167;53.448;9.984;2023-01-25T02:15:49;0.80;22.10
4308;DHT22;2167;53.448;9.984;2023-01-25T02:18:15;0.70;22.00
4308;DHT22;2167;53.448;9.984;2023-01-25T02:20:50;0.70;22.30
4308;DHT22;2167;53.448;9.984;2023-01-25T02:23:47;0.60;22.60
4308;DHT22;2167;53.448;9.984;2023-01-25T02:26:16;0.60;23.00
4308;DHT22;2167;53.448;9.984;2023-01-25T02:29:09;0.50;23.30
4308;DHT22;2167;53.448;9.984;2023-01-25T02:31:35;0.50;23.60
4308;DHT22;2167;53.448;9.984;2023-01-25T02:34:01;0.50;24.30
4308;DHT22;2167;53.448;9.984;2023-01-25T02:36:29;0.50;24.40
4308;DHT22;2167;53.448;9.984;2023-01-25T02:39:07;0.60;24.20
4308;DHT22;2167;53.448;9.984;2023-01-25T02:41:38;0.60;24.20
4308;DHT22;2167;53.448;9.984;2023-01-25T02:44:10;0.70;24.00
4308;DHT22;2167;53.448;9.984;2023-01-25T02:46:39;0.70;23.70
4308;DHT22;2167;53.448;9.984;2023-01-25T02:49:06;0.70;23.50
4308;DHT22;2167;53.448;9.984;2023-01-25T02:51:34;0.70;23.90
4308;DHT22;2167;53.448;9.984;2023-01-25T02:54:01;0.80;23.70
4308;DHT22;2167;53.448;9.984;2023-01-25T02:56:28;0.80;22.80
4308;DHT22;2167;53.448;9.984;2023-01-25T02:58:54;0.80;22.20
4308;DHT22;2167;53.448;9.984;2023-01-25T03:01:20;0.80;22.00
4308;DHT22;2167;53.448;9.984;2023-01-25T03:03:45;0.70;21.40
4308;DHT22;2167;53.448;9.984;2023-01-25T03:06:11;0.70;21.70
4308;DHT22;2167;53.448;9.984;2023-01-25T03:08:37;0.70;21.70
4308;DHT22;2167;53.448;9.984;2023-01-25T03:11:04;0.60;21.30
4308;DHT22;2167;53.448;9.984;2023-01-25T03:13:31;0.70;21.80
4308;DHT22;2167;53.448;9.984;2023-01-25T03:16:05;0.60;21.60
4308;DHT22;2167;53.448;9.984;2023-01-25T03:18:32;0.70;21.00
4308;DHT22;2167;53.448;9.984;2023-01-25T03:23:31;0.70;20.10
4308;DHT22;2167;53.448;9.984;2023-01-25T03:26:07;0.60;20.20
4308;DHT22;2167;53.448;9.984;2023-01-25T03:28:33;0.60;20.20
4308;DHT22;2167;53.448;9.984;2023-01-25T03:30:59;0.50;18.80
4308;DHT22;2167;53.448;9.984;2023-01-25T03:33:25;0.40;19.20
4308;DHT22;2167;53.448;9.984;2023-01-25T03:35:54;0.30;19.30
4308;DHT22;2167;53.448;9.984;2023-01-25T03:38:20;0.30;19.90
4308;DHT22;2167;53.448;9.984;2023-01-25T03:40:46;0.30;19.00
4308;DHT22;2167;53.448;9.984;2023-01-25T03:43:12;0.30;18.70
4308;DHT22;2167;53.448;9.984;2023-01-25T03:45:38;0.30;19.10
4308;DHT22;2167;53.448;9.984;2023-01-25T03:48:04;0.30;19.30
4308;DHT22;2167;53.448;9.984;2023-01-25T03:50:30;0.30;18.90
4308;DHT22;2167;53.448;9.984;2023-01-25T03:53:00;0.20;18.60
4308;DHT22;2167;53.448;9.984;2023-01-25T03:55:32;0.10;19.00
4308;DHT22;2167;53.448;9.984;2023-01-25T03:57:57;0.20;19.80
4308;DHT22;2167;53.448;9.984;2023-01-25T04:00:23;0.30;20.40
4308;DHT22;2167;53.448;9.984;2023-01-25T04:02:48;0.30;20.50
4308;DHT22;2167;53.448;9.984;2023-01-25T04:05:14;0.40;20.40
4308;DHT22;2167;53.448;9.984;2023-01-25T04:07:40;0.50;20.70
4308;DHT22;2167;53.448;9.984;2023-01-25T04:10:07;0.60;20.20
4308;DHT22;2167;53.448;9.984;2023-01-25T04:12:32;0.60;19.50
4308;DHT22;2167;53.448;9.984;2023-01-25T04:14:58;0.60;17.40
4308;DHT22;2167;53.448;9.984;2023-01-25T04:17:24;0.60;17.00
4308;DHT22;2167;53.448;9.984;2023-01-25T04:19:49;0.60;16.80
4308;DHT22;2167;53.448;9.984;2023-01-25T04:22:15;0.60;16.80
4308;DHT22;2167;53.448;9.984;2023-01-25T04:24:41;0.60;17.00
4308;DHT22;2167;53.448;9.984;2023-01-25T04:27:08;0.60;17.10
4308;DHT22;2167;53.448;9.984;2023-01-25T04:29:34;0.60;16.80
4308;DHT22;2167;53.448;9.984;2023-01-25T04:32:00;0.60;17.30
4308;DHT22;2167;53.448;9.984;2023-01-25T04:34:26;0.60;16.90
4308;DHT22;2167;53.448;9.984;2023-01-25T04:36:53;0.60;16.70
4308;DHT22;2167;53.448;9.984;2023-01-25T04:39:18;0.60;17.20
4308;DHT22;2167;53.448;9.984;2023-01-25T04:41:44;0.70;17.50
4308;DHT22;2167;53.448;9.984;2023-01-25T04:44:10;0.60;16.60
4308;DHT22;2167;53.448;9.984;2023-01-25T04:46:36;0.60;17.10
4308;DHT22;2167;53.448;9.984;2023-01-25T04:49:01;0.60;18.00
4308;DHT22;2167;53.448;9.984;2023-01-25T04:51:27;0.60;18.10
4308;DHT22;2167;53.448;9.984;2023-01-25T04:53:53;0.60;16.70
4308;DHT22;2167;53.448;9.984;2023-01-25T04:56:18;0.60;16.70
4308;DHT22;2167;53.448;9.984;2023-01-25T04:58:44;0.60;16.20
4308;DHT22;2167;53.448;9.984;2023-01-25T05:01:10;0.50;16.30
4308;DHT22;2167;53.448;9.984;2023-01-25T05:03:36;0.40;16.80
4308;DHT22;2167;53.448;9.984;2023-01-25T05:06:01;0.40;17.60
4308;DHT22;2167;53.448;9.984;2023-01-25T05:08:27;0.40;17.90
4308;DHT22;2167;53.448;9.984;2023-01-25T05:10:52;0.30;18.20
4308;DHT22;2167;53.448;9.984;2023-01-25T05:13:18;0.40;18.50
4308;DHT22;2167;53.448;9.984;2023-01-25T05:15:44;0.30;18.50
4308;DHT22;2167;53.448;9.984;2023-01-25T05:18:09;0.40;18.90
4308;DHT22;2167;53.448;9.984;2023-01-25T05:20:37;0.40;19.20
4308;DHT22;2167;53.448;9.984;2023-01-25T05:23:03;0.30;19.50
4308;DHT22;2167;53.448;9.984;2023-01-25T05:25:28;0.30;19.30
4308;DHT22;2167;53.448;9.984;2023-01-25T05:28:12;0.30;19.60
4308;DHT22;2167;53.448;9.984;2023-01-25T05:30:38;0.30;19.20
4308;DHT22;2167;53.448;9.984;2023-01-25T05:33:03;0.30;19.70
4308;DHT22;2167;53.448;9.984;2023-01-25T05:35:29;0.30;20.10
4308;DHT22;2167;53.448;9.984;2023-01-25T05:37:58;0.40;20.20
4308;DHT22;2167;53.448;9.984;2023-01-25T05:40:25;0.40;20.20
4308;DHT22;2167;53.448;9.984;2023-01-25T05:42:57;0.50;20.50
4308;DHT22;2167;53.448;9.984;2023-01-25T05:45:23;0.50;19.40
4308;DHT22;2167;53.448;9.984;2023-01-25T05:47:53;0.50;18.80
4308;DHT22;2167;53.448;9.984;2023-01-25T05:50:19;0.40;19.30
4308;DHT22;2167;53.448;9.984;2023-01-25T05:52:45;0.30;19.70
4308;DHT22;2167;53.448;9.984;2023-01-25T05:55:11;0.30;19.80
4308;DHT22;2167;53.448;9.984;2023-01-25T05:57:37;0.30;20.10
4308;DHT22;2167;53.448;9.984;2023-01-25T06:00:04;0.30;20.10
4308;DHT22;2167;53.448;9.984;2023-01-25T06:02:30;0.20;20.00
4308;DHT22;2167;53.448;9.984;2023-01-25T06:04:56;0.20;20.40
4308;DHT22;2167;53.448;9.984;2023-01-25T06:07:22;0.20;20.50
4308;DHT22;2167;53.448;9.984;2023-01-25T06:09:48;0.20;20.90
4308;DHT22;2167;53.448;9.984;2023-01-25T06:12:15;0.20;21.10
4308;DHT22;2167;53.448;9.984;2023-01-25T06:14:41;0.30;21.20
4308;DHT22;2167;53.448;9.984;2023-01-25T06:17:07;0.30;21.20
4308;DHT22;2167;53.448;9.984;2023-01-25T06:19:33;0.20;20.50
4308;DHT22;2167;53.448;9.984;2023-01-25T06:21:58;0.20;20.90
4308;DHT22;2167;53.448;9.984;2023-01-25T06:24:24;0.20;21.20
4308;DHT22;2167;53.448;9.984;2023-01-25T06:26:49;0.30;21.80
4308;DHT22;2167;53.448;9.984;2023-01-25T06:29:15;0.50;21.70
4308;DHT22;2167;53.448;9.984;2023-01-25T06:31:41;0.50;20.60
4308;DHT22;2167;53.448;9.984;2023-01-25T06:34:06;0.40;19.80
4308;DHT22;2167;53.448;9.984;2023-01-25T06:36:33;0.40;20.20
4308;DHT22;2167;53.448;9.984;2023-01-25T06:38:59;0.50;20.20
4308;DHT22;2167;53.448;9.984;2023-01-25T06:41:24;0.50;19.70
4308;DHT22;2167;53.448;9.984;2023-01-25T06:43:51;0.50;19.90
4308;DHT22;2167;53.448;9.984;2023-01-25T06:46:18;0.30;20.10
4308;DHT22;2167;53.448;9.984;2023-01-25T06:48:43;0.30;20.60
4308;DHT22;2167;53.448;9.984;2023-01-25T06:51:11;0.30;20.70
4308;DHT22;2167;53.448;9.984;2023-01-25T06:53:39;0.20;20.90
4308;DHT22;2167;53.448;9.984;2023-01-25T06:56:14;0.10;21.00
4308;DHT22;2167;53.448;9.984;2023-01-25T06:58:40;0.10;21.50
4308;DHT22;2167;53.448;9.984;2023-01-25T07:03:38;0.10;21.50
4308;DHT22;2167;53.448;9.984;2023-01-25T07:06:06;0.20;21.30
4308;DHT22;2167;53.448;9.984;2023-01-25T07:08:33;0.10;21.20
4308;DHT22;2167;53.448;9.984;2023-01-25T07:11:01;0.20;21.20
4308;DHT22;2167;53.448;9.984;2023-01-25T07:13:29;0.20;21.00
4308;DHT22;2167;53.448;9.984;2023-01-25T07:15:56;0.20;20.70
4308;DHT22;2167;53.448;9.984;2023-01-25T07:18:22;0.20;20.60
4308;DHT22;2167;53.448;9.984;2023-01-25T07:20:48;0.20;20.80
4308;DHT22;2167;53.448;9.984;2023-01-25T07:23:14;0.10;21.20
4308;DHT22;2167;53.448;9.984;2023-01-25T07:25:47;0.20;21.80
4308;DHT22;2167;53.448;9.984;2023-01-25T07:28:13;0.30;22.00
4308;DHT22;2167;53.448;9.984;2023-01-25T07:30:40;0.30;22.00
4308;DHT22;2167;53.448;9.984;2023-01-25T07:33:07;0.40;21.40
4308;DHT22;2167;53.448;9.984;2023-01-25T07:35:32;0.40;20.30
4308;DHT22;2167;53.448;9.984;2023-01-25T07:37:58;0.30;19.90
4308;DHT22;2167;53.448;9.984;2023-01-25T07:40:24;0.30;20.10
4308;DHT22;2167;53.448;9.984;2023-01-25T07:42:50;0.30;20.30
4308;DHT22;2167;53.448;9.984;2023-01-25T07:45:16;0.20;20.40
4308;DHT22;2167;53.448;9.984;2023-01-25T07:47:42;0.20;20.80
4308;DHT22;2167;53.448;9.984;2023-01-25T07:50:09;0.20;21.20
4308;DHT22;2167;53.448;9.984;2023-01-25T07:52:34;0.30;21.50
4308;DHT22;2167;53.448;9.984;2023-01-25T07:55:00;0.40;21.40
4308;DHT22;2167;53.448;9.984;2023-01-25T07:57:26;0.40;21.30
4308;DHT22;2167;53.448;9.984;2023-01-25T07:59:53;0.50;21.10
4308;DHT22;2167;53.448;9.984;2023-01-25T08:02:18;0.60;20.90
4308;DHT22;2167;53.448;9.984;2023-01-25T08:04:45;0.70;20.10
4308;DHT22;2167;53.448;9.984;2023-01-25T08:07:11;0.60;19.30
4308;DHT22;2167;53.448;9.984;2023-01-25T08:09:37;0.60;19.30
4308;DHT22;2167;53.448;9.984;2023-01-25T08:12:03;0.60;19.60
4308;DHT22;2167;53.448;9.984;2023-01-25T08:14:28;0.80;19.60
4308;DHT22;2167;53.448;9.984;2023-01-25T08:16:54;0.70;18.40
4308;DHT22;2167;53.448;9.984;2023-01-25T08:19:20;0.60;17.70
4308;DHT22;2167;53.448;9.984;2023-01-25T08:21:46;0.50;18.00
4308;DHT22;2167;53.448;9.984;2023-01-25T08:24:12;0.50;18.00
4308;DHT22;2167;53.448;9.984;2023-01-25T08:26:37;0.50;18.20
4308;DHT22;2167;53.448;9.984;2023-01-25T08:29:04;0.40;18.70
4308;DHT22;2167;53.448;9.984;2023-01-25T08:31:33;0.40;19.00
4308;DHT22;2167;53.448;9.984;2023-01-25T08:34:00;0.40;18.90
4308;DHT22;2167;53.448;9.984;2023-01-25T08:36:26;0.40;19.00
4308;DHT22;2167;53.448;9.984;2023-01-25T08:39:00;0.40;19.50
4308;DHT22;2167;53.448;9.984;2023-01-25T08:41:27;0.30;19.50
4308;DHT22;2167;53.448;9.984;2023-01-25T08:43:54;0.30;19.60
4308;DHT22;2167;53.448;9.984;2023-01-25T08:46:21;0.30;19.90
4308;DHT22;2167;53.448;9.984;2023-01-25T08:48:47;0.30;20.30
4308;DHT22;2167;53.448;9.984;2023-01-25T08:51:14;0.30;20.50
4308;DHT22;2167;53.448;9.984;2023-01-25T08:53:40;0.30;20.90
4308;DHT22;2167;53.448;9.984;2023-01-25T08:56:12;0.30;21.20
4308;DHT22;2167;53.448;9.984;2023-01-25T08:58:43;0.30;21.40
4308;DHT22;2167;53.448;9.984;2023-01-25T09:01:11;0.40;21.60
4308;DHT22;2167;53.448;9.984;2023-01-25T09:03:42;0.50;21.50
4308;DHT22;2167;53.448;9.984;2023-01-25T09:06:09;0.50;20.80
4308;DHT22;2167;53.448;9.984;2023-01-25T09:08:35;0.60;20.40
4308;DHT22;2167;53.448;9.984;2023-01-25T09:11:14;0.60;20.00
4308;DHT22;2167;53.448;9.984;2023-01-25T09:13:40;0.70;20.00
4308;DHT22;2167;53.448;9.984;2023-01-25T09:16:10;0.80;18.40
4308;DHT22;2167;53.448;9.984;2023-01-25T09:18:37;0.70;17.90
4308;DHT22;2167;53.448;9.984;2023-01-25T09:21:11;0.70;18.10
4308;DHT22;2167;53.448;9.984;2023-01-25T09:23:37;0.70;18.70
4308;DHT22;2167;53.448;9.984;2023-01-25T09:26:04;0.70;17.90
4308;DHT22;2167;53.448;9.984;2023-01-25T09:28:32;0.60;18.00
4308;DHT22;2167;53.448;9.984;2023-01-25T09:31:00;0.50;18.30
4308;DHT22;2167;53.448;9.984;2023-01-25T09:33:28;0.50;18.90
4308;DHT22;2167;53.448;9.984;2023-01-25T09:35:54;0.60;19.70
4308;DHT22;2167;53.448;9.984;2023-01-25T09:38:20;0.50;19.90
4308;DHT22;2167;53.448;9.984;2023-01-25T09:51:56;0.70;19.50
4308;DHT22;2167;53.448;9.984;2023-01-25T09:54:27;0.70;18.10
4308;DHT22;2167;53.448;9.984;2023-01-25T09:56:55;0.70;17.80
4308;DHT22;2167;53.448;9.984;2023-01-25T09:59:24;0.60;17.70
4308;DHT22;2167;53.448;9.984;2023-01-25T10:01:52;0.60;17.80
4308;DHT22;2167;53.448;9.984;2023-01-25T10:04:36;0.60;18.20
4308;DHT22;2167;53.448;9.984;2023-01-25T10:07:27;0.50;18.70
4308;DHT22;2167;53.448;9.984;2023-01-25T10:09:58;0.40;19.10
4308;DHT22;2167;53.448;9.984;2023-01-25T10:12:25;0.40;19.80
4308;DHT22;2167;53.448;9.984;2023-01-25T10:14:53;0.40;19.50
4308;DHT22;2167;53.448;9.984;2023-01-25T10:17:34;0.40;19.40
4308;DHT22;2167;53.448;9.984;2023-01-25T10:22:28;0.40;19.50
4308;DHT22;2167;53.448;9.984;2023-01-25T10:25:22;0.40;19.60
4308;DHT22;2167;53.448;9.984;2023-01-25T10:28:17;0.40;19.90
4308;DHT22;2167;53.448;9.984;2023-01-25T10:33:42;0.40;19.40
4308;DHT22;2167;53.448;9.984;2023-01-25T10:36:14;0.50;19.60
4308;DHT22;2167;53.448;9.984;2023-01-25T10:38:44;0.50;19.60
4308;DHT22;2167;53.448;9.984;2023-01-25T10:41:21;0.30;19.70
4308;DHT22;2167;53.448;9.984;2023-01-25T10:43:51;0.30;20.00
4308;DHT22;2167;53.448;9.984;2023-01-25T10:46:38;0.30;20.30
4308;DHT22;2167;53.448;9.984;2023-01-25T10:51:53;0.30;20.90
4308;DHT22;2167;53.448;9.984;2023-01-25T10:54:21;0.30;20.50
4308;DHT22;2167;53.448;9.984;2023-01-25T10:56:47;0.40;19.70
4308;DHT22;2167;53.448;9.984;2023-01-25T10:59:31;0.40;19.70
4308;DHT22;2167;53.448;9.984;2023-01-25T11:05:23;0.30;20.10
4308;DHT22;2167;53.448;9.984;2023-01-25T11:07:49;0.40;20.10
4308;DHT22;2167;53.448;9.984;2023-01-25T11:10:30;0.40;20.10
4308;DHT22;2167;53.448;9.984;2023-01-25T11:15:38;0.30;20.40
4308;DHT22;2167;53.448;9.984;2023-01-25T11:18:06;0.30;20.30
4308;DHT22;2167;53.448;9.984;2023-01-25T11:20:36;0.30;20.40
4308;DHT22;2167;53.448;9.984;2023-01-25T11:23:02;0.40;20.80
4308;DHT22;2167;53.448;9.984;2023-01-25T11:25:30;0.40;20.70
4308;DHT22;2167;53.448;9.984;2023-01-25T11:28:19;0.40;20.10
4308;DHT22;2167;53.448;9.984;2023-01-25T11:30:45;0.40;19.70
4308;DHT22;2167;53.448;9.984;2023-01-25T11:33:13;0.30;20.00
4308;DHT22;2167;53.448;9.984;2023-01-25T11:38:29;0.20;20.60
4308;DHT22;2167;53.448;9.984;2023-01-25T11:41:20;0.10;21.00
4308;DHT22;2167;53.448;9.984;2023-01-25T11:46:43;0.10;21.80
4308;DHT22;2167;53.448;9.984;2023-01-25T11:55:01;0.10;21.60
4308;DHT22;2167;53.448;9.984;2023-01-25T12:01:06;0.20;20.90
4308;DHT22;2167;53.448;9.984;2023-01-25T12:06:21;0.30;21.50
4308;DHT22;2167;53.448;9.984;2023-01-25T12:09:21;0.40;21.50
4308;DHT22;2167;53.448;9.984;2023-01-25T12:11:54;0.50;21.40
4308;DHT22;2167;53.448;9.984;2023-01-25T12:28:17;0.40;20.30
4308;DHT22;2167;53.448;9.984;2023-01-25T12:36:14;0.30;21.70
4308;DHT22;2167;53.448;9.984;2023-01-25T12:38:58;0.20;22.00
4308;DHT22;2167;53.448;9.984;2023-01-25T12:44:35;0.20;22.60
4308;DHT22;2167;53.448;9.984;2023-01-25T12:47:10;0.20;23.00
4308;DHT22;2167;53.448;9.984;2023-01-25T12:49:58;0.30;23.50
4308;DHT22;2167;53.448;9.984;2023-01-25T12:52:28;0.30;23.40
4308;DHT22;2167;53.448;9.984;2023-01-25T12:54:58;0.30;23.10
4308;DHT22;2167;53.448;9.984;2023-01-25T12:57:26;0.30;23.20
4308;DHT22;2167;53.448;9.984;2023-01-25T13:00:01;0.40;23.80
4308;DHT22;2167;53.448;9.984;2023-01-25T13:02:33;0.50;24.40
4308;DHT22;2167;53.448;9.984;2023-01-25T13:05:07;0.70;24.90
4308;DHT22;2167;53.448;9.984;2023-01-25T13:10:45;0.80;21.50
4308;DHT22;2167;53.448;9.984;2023-01-25T13:13:26;0.80;21.50
4308;DHT22;2167;53.448;9.984;2023-01-25T13:15:53;0.80;21.30
4308;DHT22;2167;53.448;9.984;2023-01-25T13:20:56;0.80;21.50
4308;DHT22;2167;53.448;9.984;2023-01-25T13:23:31;0.80;22.10
4308;DHT22;2167;53.448;9.984;2023-01-25T13:28:55;0.90;22.60
4308;DHT22;2167;53.448;9.984;2023-01-25T13:37:27;0.90;21.30
4308;DHT22;2167;53.448;9.984;2023-01-25T13:40:32;0.90;22.10
4308;DHT22;2167;53.448;9.984;2023-01-25T13:43:18;0.80;21.90
4308;DHT22;2167;53.448;9.984;2023-01-25T13:45:44;0.80;22.20
4308;DHT22;2167;53.448;9.984;2023-01-25T13:48:14;0.70;22.50
4308;DHT22;2167;53.448;9.984;2023-01-25T13:50:56;0.60;23.60
4308;DHT22;2167;53.448;9.984;2023-01-25T13:53:24;0.70;23.70
4308;DHT22;2167;53.448;9.984;2023-01-25T13:55:57;0.70;23.80
4308;DHT22;2167;53.448;9.984;2023-01-25T13:58:34;0.60;24.00
4308;DHT22;2167;53.448;9.984;2023-01-25T14:01:03;0.60;24.50
4308;DHT22;2167;53.448;9.984;2023-01-25T14:03:56;0.60;24.70
4308;DHT22;2167;53.448;9.984;2023-01-25T14:06:25;0.50;25.00
4308;DHT22;2167;53.448;9.984;2023-01-25T14:08:54;0.50;25.40
4308;DHT22;2167;53.448;9.984;2023-01-25T14:11:24;0.40;25.90
4308;DHT22;2167;53.448;9.984;2023-01-25T14:14:16;0.40;26.30
4308;DHT22;2167;53.448;9.984;2023-01-25T14:16:43;0.40;26.50
4308;DHT22;2167;53.448;9.984;2023-01-25T14:19:36;0.40;26.50
4308;DHT22;2167;53.448;9.984;2023-01-25T14:22:22;0.30;27.00
4308;DHT22;2167;53.448;9.984;2023-01-25T14:25:15;0.30;27.40
4308;DHT22;2167;53.448;9.984;2023-01-25T14:27:43;0.40;27.50
4308;DHT22;2167;53.448;9.984;2023-01-25T14:30:30;0.30;27.90
4308;DHT22;2167;53.448;9.984;2023-01-25T14:32:59;0.30;28.20
4308;DHT22;2167;53.448;9.984;2023-01-25T14:38:02;0.10;28.70
4308;DHT22;2167;53.448;9.984;2023-01-25T14:40:41;0.10;28.90
4308;DHT22;2167;53.448;9.984;2023-01-25T14:43:09;0.10;29.20
4308;DHT22;2167;53.448;9.984;2023-01-25T14:45:34;0.10;29.30
4308;DHT22;2167;53.448;9.984;2023-01-25T14:48:00;0.10;29.50
4308;DHT22;2167;53.448;9.984;2023-01-25T14:55:45;0.10;30.10
4308;DHT22;2167;53.448;9.984;2023-01-25T14:58:19;0.10;30.20
4308;DHT22;2167;53.448;9.984;2023-01-25T15:00:57;0.10;29.80
4308;DHT22;2167;53.448;9.984;2023-01-25T15:03:24;0.00;29.90
4308;DHT22;2167;53.448;9.984;2023-01-25T15:05:52;0.00;30.10
4308;DHT22;2167;53.448;9.984;2023-01-25T15:08:28;0.00;30.50
4308;DHT22;2167;53.448;9.984;2023-01-25T15:10:58;0.00;30.80
4308;DHT22;2167;53.448;9.984;2023-01-25T15:13:44;0.10;31.10
4308;DHT22;2167;53.448;9.984;2023-01-25T15:16:09;0.20;30.90
4308;DHT22;2167;53.448;9.984;2023-01-25T15:23:45;0.30;30.00
4308;DHT22;2167;53.448;9.984;2023-01-25T15:26:24;0.20;29.80
4308;DHT22;2167;53.448;9.984;2023-01-25T15:28:52;0.20;29.70
4308;DHT22;2167;53.448;9.984;2023-01-25T15:31:31;0.20;29.70
4308;DHT22;2167;53.448;9.984;2023-01-25T15:33:58;0.10;30.00
4308;DHT22;2167;53.448;9.984;2023-01-25T15:36:24;0.10;30.10
4308;DHT22;2167;53.448;9.984;2023-01-25T15:38:50;0.00;30.10
4308;DHT22;2167;53.448;9.984;2023-01-25T15:41:16;0.10;30.40
4308;DHT22;2167;53.448;9.984;2023-01-25T15:43:45;0.00;30.50
4308;DHT22;2167;53.448;9.984;2023-01-25T15:46:20;0.00;30.60
4308;DHT22;2167;53.448;9.984;2023-01-25T15:48:48;0.00;30.90
4308;DHT22;2167;53.448;9.984;2023-01-25T15:51:14;-0.10;31.10
4308;DHT22;2167;53.448;9.984;2023-01-25T15:53:40;-0.10;31.40
4308;DHT22;2167;53.448;9.984;2023-01-25T15:56:20;-0.10;31.60
4308;DHT22;2167;53.448;9.984;2023-01-25T15:58:58;0.00;31.60
4308;DHT22;2167;53.448;9.984;2023-01-25T16:01:26;0.00;31.80
4308;DHT22;2167;53.448;9.984;2023-01-25T16:03:53;-0.10;32.10
4308;DHT22;2167;53.448;9.984;2023-01-25T16:06:35;-0.10;32.20
4308;DHT22;2167;53.448;9.984;2023-01-25T16:09:11;0.00;32.60
4308;DHT22;2167;53.448;9.984;2023-01-25T16:11:37;0.10;32.80
4308;DHT22;2167;53.448;9.984;2023-01-25T16:14:03;0.10;33.00
4308;DHT22;2167;53.448;9.984;2023-01-25T16:16:29;0.20;32.80
4308;DHT22;2167;53.448;9.984;2023-01-25T16:18:54;0.20;32.20
4308;DHT22;2167;53.448;9.984;2023-01-25T16:21:20;0.20;32.00
4308;DHT22;2167;53.448;9.984;2023-01-25T16:23:45;0.20;32.10
4308;DHT22;2167;53.448;9.984;2023-01-25T16:26:21;0.20;31.60
4308;DHT22;2167;53.448;9.984;2023-01-25T16:28:47;0.30;31.30
4308;DHT22;2167;53.448;9.984;2023-01-25T16:31:14;0.30;31.30
4308;DHT22;2167;53.448;9.984;2023-01-25T16:33:40;0.30;30.10
4308;DHT22;2167;53.448;9.984;2023-01-25T16:36:16;0.40;29.50
4308;DHT22;2167;53.448;9.984;2023-01-25T16:38:43;0.30;28.70
4308;DHT22;2167;53.448;9.984;2023-01-25T16:41:09;0.30;28.30
4308;DHT22;2167;53.448;9.984;2023-01-25T16:43:47;0.40;28.20
4308;DHT22;2167;53.448;9.984;2023-01-25T16:46:18;0.30;27.40
4308;DHT22;2167;53.448;9.984;2023-01-25T16:48:45;0.20;27.40
4308;DHT22;2167;53.448;9.984;2023-01-25T16:51:15;0.20;27.50
4308;DHT22;2167;53.448;9.984;2023-01-25T16:53:41;0.10;27.60
4308;DHT22;2167;53.448;9.984;2023-01-25T16:56:18;0.00;27.90
4308;DHT22;2167;53.448;9.984;2023-01-25T16:58:44;0.10;28.40
4308;DHT22;2167;53.448;9.984;2023-01-25T17:01:11;0.00;28.50
4308;DHT22;2167;53.448;9.984;2023-01-25T17:03:37;0.00;29.00
4308;DHT22;2167;53.448;9.984;2023-01-25T17:06:04;0.10;29.20
4308;DHT22;2167;53.448;9.984;2023-01-25T17:08:30;0.10;29.20
4308;DHT22;2167;53.448;9.984;2023-01-25T17:10:55;0.00;29.30
4308;DHT22;2167;53.448;9.984;2023-01-25T17:13:24;0.00;29.40
4308;DHT22;2167;53.448;9.984;2023-01-25T17:15:50;0.10;29.90
4308;DHT22;2167;53.448;9.984;2023-01-25T17:18:16;0.10;29.80
4308;DHT22;2167;53.448;9.984;2023-01-25T17:20:42;0.10;29.80
4308;DHT22;2167;53.448;9.984;2023-01-25T17:23:08;0.10;29.80
4308;DHT22;2167;53.448;9.984;2023-01-25T17:25:37;0.10;29.60
4308;DHT22;2167;53.448;9.984;2023-01-25T17:28:03;0.10;28.40
4308;DHT22;2167;53.448;9.984;2023-01-25T17:30:28;0.00;28.00
4308;DHT22;2167;53.448;9.984;2023-01-25T17:32:54;0.00;27.90
4308;DHT22;2167;53.448;9.984;2023-01-25T17:35:19;-0.10;28.00
4308;DHT22;2167;53.448;9.984;2023-01-25T17:37:45;-0.20;27.90
4308;DHT22;2167;53.448;9.984;2023-01-25T17:40:11;-0.20;28.40
4308;DHT22;2167;53.448;9.984;2023-01-25T17:42:36;-0.30;28.90
4308;DHT22;2167;53.448;9.984;2023-01-25T17:45:02;-0.30;29.40
4308;DHT22;2167;53.448;9.984;2023-01-25T17:47:28;-0.40;29.50
4308;DHT22;2167;53.448;9.984;2023-01-25T17:49:55;-0.50;29.80
4308;DHT22;2167;53.448;9.984;2023-01-25T17:52:21;-0.50;29.90
4308;DHT22;2167;53.448;9.984;2023-01-25T17:54:47;-0.60;29.60
4308;DHT22;2167;53.448;9.984;2023-01-25T17:57:12;-0.60;29.80
4308;DHT22;2167;53.448;9.984;2023-01-25T17:59:38;-0.60;30.00
4308;DHT22;2167;53.448;9.984;2023-01-25T18:02:03;-0.60;30.60
4308;DHT22;2167;53.448;9.984;2023-01-25T18:04:32;-0.50;30.80
4308;DHT22;2167;53.448;9.984;2023-01-25T18:06:59;-0.50;30.30
4308;DHT22;2167;53.448;9.984;2023-01-25T18:09:25;-0.50;29.90
4308;DHT22;2167;53.448;9.984;2023-01-25T18:11:51;-0.50;29.40
4308;DHT22;2167;53.448;9.984;2023-01-25T18:14:17;-0.50;29.60
4308;DHT22;2167;53.448;9.984;2023-01-25T18:16:43;-0.50;29.60
4308;DHT22;2167;53.448;9.984;2023-01-25T18:19:09;-0.40;29.70